Koenton, Alabama
Current Conditions -  °F | °C
As of 11:58 PM on Friday 28 Nov 2014 (Local Time) from KMEI Reporting Station
Clear Clear  
Wind Chill: 32°   Ceiling: Unl
Heat Index: 37°   Visibility: 10mi
Dew Point: 30°   Wind: 7mph
Humidity: 76%   Direction: 210°SSW
Pressure: 30.24"   Gusts: NA
Location:  31.6272°N, 88.354°W
Report Text: KMEI 290558Z AUTO 21006KT 10SM CLR 03/M01 A3024 RMK AO2 SLP238 T00281011 10067 20011 401441028 58005
Loading
Personal Weather Stations






























Interactive Weather Map New forecast layout! Learn more

10-Day Weather Forecast

Advertisements
Track Severe Weather on mobile